This is the latest recevied weather packets stored in our database for station/object N0FDH. If no packets are shown the sender has not sent any weather packets the latest 10 day(s).
| Time | Temp. | Humidity | Pressure | Rain* | Wind** | Luminosity | Snow |
|---|---|---|---|---|---|---|---|
| 1777661683 | 10.56° C | 34% | 1018 hPa | 0 mm | - | 776 W/m² | - |
| 1777661380 | 10° C | 34% | 1018.1 hPa | 0 mm | - | 754 W/m² | - |
| 1777661076 | 8.89° C | 36% | 1018.1 hPa | 0 mm | - | 749 W/m² | - |
| 1777660771 | 8.33° C | 37% | 1018.1 hPa | 0 mm | - | 744 W/m² | - |
| 1777660468 | 8.89° C | 36% | 1018 hPa | 0 mm | - | 196 W/m² | - |
| 1777660164 | 10° C | 36% | 1018 hPa | 0 mm | - | 327 W/m² | - |
| 1777659861 | 8.89° C | 38% | 1018.2 hPa | 0 mm | - | 760 W/m² | - |
| 1777659558 | 8.89° C | 38% | 1018.2 hPa | 0 mm | - | 767 W/m² | - |
| 1777659255 | 8.89° C | 38% | 1018.1 hPa | 0 mm | - | 375 W/m² | - |
| 1777658952 | 8.89° C | 38% | 1018.2 hPa | 0 mm | - | 736 W/m² | - |
| 1777658649 | 8.33° C | 38% | 1018.2 hPa | 0 mm | - | 713 W/m² | - |
| 1777658345 | 8.33° C | 38% | 1018.3 hPa | 0 mm | - | 686 W/m² | - |
| 1777658042 | 7.78° C | 38% | 1018.3 hPa | 0 mm | - | 721 W/m² | - |
| 1777657739 | 8.33° C | 41% | 1018.3 hPa | 0 mm | - | 247 W/m² | - |
| 1777657436 | 8.33° C | 40% | 1018.4 hPa | 0 mm | - | 237 W/m² | - |
| 1777657134 | 8.33° C | 44% | 1018.5 hPa | 0 mm | - | 763 W/m² | - |
| 1777656832 | 7.78° C | 43% | 1018.4 hPa | 0 mm | - | 722 W/m² | - |
| 1777656527 | 7.78° C | 41% | 1018.5 hPa | 0 mm | - | 712 W/m² | - |
| 1777656222 | 7.78° C | 43% | 1018.4 hPa | 0 mm | - | 479 W/m² | - |
| 1777655918 | 7.78° C | 43% | 1018.6 hPa | 0 mm | - | 673 W/m² | - |
| 1777655615 | 8.33° C | 42% | 1018.5 hPa | 0 mm | - | 712 W/m² | - |
| 1777655312 | 7.78° C | 39% | 1018.4 hPa | 0 mm | - | 768 W/m² | - |
| 1777655009 | 7.22° C | 41% | 1018.7 hPa | 0 mm | - | 762 W/m² | - |
| 1777654706 | 7.22° C | 41% | 1018.7 hPa | 0 mm | - | 725 W/m² | - |
| 1777654404 | 7.78° C | 40% | 1018.6 hPa | 0 mm | - | 729 W/m² | - |
* Rain latest hour (hover to see other rain measurements)
** Current wind speed in m/s (hover to see current wind gust speed)